sensor_id;sensor_type;location;lat;lon;timestamp;P1;durP1;ratioP1;P2;durP2;ratioP2
82646;SDS011;72325;41.910;22.404;2023-12-22T00:00:59;78.45;;;43.83;;
82646;SDS011;72325;41.910;22.404;2023-12-22T00:03:25;79.35;;;46.15;;
82646;SDS011;72325;41.910;22.404;2023-12-22T00:05:51;77.57;;;42.50;;
82646;SDS011;72325;41.910;22.404;2023-12-22T00:08:17;70.15;;;41.85;;
82646;SDS011;72325;41.910;22.404;2023-12-22T00:10:43;59.97;;;36.03;;
82646;SDS011;72325;41.910;22.404;2023-12-22T00:13:10;57.20;;;33.00;;
82646;SDS011;72325;41.910;22.404;2023-12-22T00:15:36;69.75;;;39.58;;
82646;SDS011;72325;41.910;22.404;2023-12-22T00:18:03;73.97;;;42.38;;
82646;SDS011;72325;41.910;22.404;2023-12-22T00:23:33;108.95;;;65.55;;
82646;SDS011;72325;41.910;22.404;2023-12-22T00:26:00;116.57;;;63.75;;
82646;SDS011;72325;41.910;22.404;2023-12-22T00:28:27;110.50;;;61.90;;
82646;SDS011;72325;41.910;22.404;2023-12-22T00:30:53;57.78;;;34.17;;
82646;SDS011;72325;41.910;22.404;2023-12-22T00:33:19;44.63;;;27.27;;
82646;SDS011;72325;41.910;22.404;2023-12-22T00:38:48;27.98;;;17.33;;
82646;SDS011;72325;41.910;22.404;2023-12-22T00:41:14;28.35;;;15.35;;
82646;SDS011;72325;41.910;22.404;2023-12-22T00:43:40;25.55;;;14.77;;
82646;SDS011;72325;41.910;22.404;2023-12-22T00:46:06;22.67;;;15.07;;
82646;SDS011;72325;41.910;22.404;2023-12-22T00:48:32;30.02;;;15.52;;
82646;SDS011;72325;41.910;22.404;2023-12-22T00:50:58;26.70;;;15.77;;
82646;SDS011;72325;41.910;22.404;2023-12-22T00:53:25;26.05;;;15.02;;
82646;SDS011;72325;41.910;22.404;2023-12-22T00:55:51;25.40;;;14.07;;
82646;SDS011;72325;41.910;22.404;2023-12-22T00:58:17;30.50;;;16.60;;
82646;SDS011;72325;41.910;22.404;2023-12-22T01:00:43;28.83;;;16.05;;
82646;SDS011;72325;41.910;22.404;2023-12-22T01:03:09;38.53;;;24.45;;
82646;SDS011;72325;41.910;22.404;2023-12-22T01:08:40;53.10;;;31.80;;
82646;SDS011;72325;41.910;22.404;2023-12-22T01:11:06;51.67;;;27.00;;
82646;SDS011;72325;41.910;22.404;2023-12-22T01:13:32;47.50;;;27.05;;
82646;SDS011;72325;41.910;22.404;2023-12-22T01:15:58;45.83;;;27.35;;
82646;SDS011;72325;41.910;22.404;2023-12-22T01:18:24;47.13;;;24.75;;
82646;SDS011;72325;41.910;22.404;2023-12-22T01:23:57;45.53;;;25.17;;
82646;SDS011;72325;41.910;22.404;2023-12-22T01:26:24;37.47;;;22.00;;
82646;SDS011;72325;41.910;22.404;2023-12-22T01:28:50;56.53;;;27.45;;
82646;SDS011;72325;41.910;22.404;2023-12-22T01:31:16;89.07;;;50.47;;
82646;SDS011;72325;41.910;22.404;2023-12-22T01:33:42;53.53;;;31.33;;
82646;SDS011;72325;41.910;22.404;2023-12-22T01:36:08;41.80;;;24.45;;
82646;SDS011;72325;41.910;22.404;2023-12-22T01:38:34;29.67;;;17.95;;
82646;SDS011;72325;41.910;22.404;2023-12-22T01:41:00;27.05;;;15.85;;
82646;SDS011;72325;41.910;22.404;2023-12-22T01:43:26;30.83;;;17.35;;
82646;SDS011;72325;41.910;22.404;2023-12-22T01:45:55;42.42;;;22.45;;
82646;SDS011;72325;41.910;22.404;2023-12-22T01:53:51;25.60;;;13.18;;
82646;SDS011;72325;41.910;22.404;2023-12-22T01:56:17;20.55;;;12.48;;
82646;SDS011;72325;41.910;22.404;2023-12-22T01:58:44;24.80;;;13.85;;
82646;SDS011;72325;41.910;22.404;2023-12-22T02:01:10;28.00;;;16.38;;
82646;SDS011;72325;41.910;22.404;2023-12-22T02:03:36;39.70;;;22.90;;
82646;SDS011;72325;41.910;22.404;2023-12-22T02:09:05;48.38;;;24.58;;
82646;SDS011;72325;41.910;22.404;2023-12-22T02:11:31;38.88;;;21.20;;
82646;SDS011;72325;41.910;22.404;2023-12-22T02:13:58;35.55;;;18.85;;
82646;SDS011;72325;41.910;22.404;2023-12-22T02:17:25;40.35;;;20.10;;
82646;SDS011;72325;41.910;22.404;2023-12-22T02:22:04;42.88;;;27.33;;
82646;SDS011;72325;41.910;22.404;2023-12-22T02:24:31;42.47;;;25.65;;
82646;SDS011;72325;41.910;22.404;2023-12-22T02:27:44;40.15;;;24.05;;
82646;SDS011;72325;41.910;22.404;2023-12-22T02:29:46;37.90;;;22.20;;
82646;SDS011;72325;41.910;22.404;2023-12-22T02:32:17;37.25;;;22.88;;
82646;SDS011;72325;41.910;22.404;2023-12-22T02:34:47;37.35;;;21.60;;
82646;SDS011;72325;41.910;22.404;2023-12-22T02:37:15;41.03;;;24.48;;
82646;SDS011;72325;41.910;22.404;2023-12-22T02:39:41;38.83;;;20.05;;
82646;SDS011;72325;41.910;22.404;2023-12-22T02:42:08;33.05;;;19.35;;
82646;SDS011;72325;41.910;22.404;2023-12-22T02:44:34;40.10;;;21.33;;
82646;SDS011;72325;41.910;22.404;2023-12-22T02:47:00;38.78;;;22.05;;
82646;SDS011;72325;41.910;22.404;2023-12-22T02:49:26;36.47;;;20.00;;
82646;SDS011;72325;41.910;22.404;2023-12-22T02:51:52;35.13;;;17.85;;
82646;SDS011;72325;41.910;22.404;2023-12-22T02:54:18;38.53;;;21.23;;
82646;SDS011;72325;41.910;22.404;2023-12-22T02:56:48;31.90;;;17.60;;
82646;SDS011;72325;41.910;22.404;2023-12-22T02:59:14;33.30;;;19.83;;
82646;SDS011;72325;41.910;22.404;2023-12-22T03:01:40;32.42;;;19.23;;
82646;SDS011;72325;41.910;22.404;2023-12-22T03:04:06;30.63;;;18.38;;
82646;SDS011;72325;41.910;22.404;2023-12-22T03:06:32;34.78;;;19.00;;
82646;SDS011;72325;41.910;22.404;2023-12-22T03:08:58;21.20;;;13.27;;
82646;SDS011;72325;41.910;22.404;2023-12-22T03:11:24;34.63;;;18.52;;
82646;SDS011;72325;41.910;22.404;2023-12-22T03:13:50;31.90;;;17.65;;
82646;SDS011;72325;41.910;22.404;2023-12-22T03:16:16;29.83;;;15.57;;
82646;SDS011;72325;41.910;22.404;2023-12-22T03:18:42;33.55;;;17.23;;
82646;SDS011;72325;41.910;22.404;2023-12-22T03:24:12;14.32;;;8.85;;
82646;SDS011;72325;41.910;22.404;2023-12-22T03:26:38;9.88;;;5.82;;
82646;SDS011;72325;41.910;22.404;2023-12-22T03:29:04;9.77;;;6.10;;
82646;SDS011;72325;41.910;22.404;2023-12-22T03:31:30;13.07;;;7.55;;
82646;SDS011;72325;41.910;22.404;2023-12-22T03:33:56;25.20;;;15.02;;
82646;SDS011;72325;41.910;22.404;2023-12-22T03:36:22;32.05;;;17.70;;
82646;SDS011;72325;41.910;22.404;2023-12-22T03:38:48;33.88;;;21.27;;
82646;SDS011;72325;41.910;22.404;2023-12-22T03:41:14;41.80;;;21.70;;
82646;SDS011;72325;41.910;22.404;2023-12-22T03:43:40;38.97;;;21.80;;
82646;SDS011;72325;41.910;22.404;2023-12-22T03:46:07;36.22;;;21.15;;
82646;SDS011;72325;41.910;22.404;2023-12-22T03:48:33;37.00;;;22.95;;
82646;SDS011;72325;41.910;22.404;2023-12-22T03:54:03;27.88;;;18.67;;
82646;SDS011;72325;41.910;22.404;2023-12-22T03:56:29;31.00;;;19.00;;
82646;SDS011;72325;41.910;22.404;2023-12-22T03:58:55;28.95;;;17.75;;
82646;SDS011;72325;41.910;22.404;2023-12-22T04:01:21;36.67;;;21.58;;
82646;SDS011;72325;41.910;22.404;2023-12-22T04:03:47;31.88;;;19.73;;
82646;SDS011;72325;41.910;22.404;2023-12-22T04:09:16;29.27;;;17.13;;
82646;SDS011;72325;41.910;22.404;2023-12-22T04:11:43;28.13;;;16.52;;
82646;SDS011;72325;41.910;22.404;2023-12-22T04:14:09;32.30;;;18.00;;
82646;SDS011;72325;41.910;22.404;2023-12-22T04:16:38;41.40;;;20.83;;
82646;SDS011;72325;41.910;22.404;2023-12-22T04:19:04;41.83;;;22.58;;
82646;SDS011;72325;41.910;22.404;2023-12-22T04:21:30;33.30;;;19.65;;
82646;SDS011;72325;41.910;22.404;2023-12-22T04:23:56;33.97;;;20.10;;
82646;SDS011;72325;41.910;22.404;2023-12-22T04:26:22;30.75;;;19.42;;
82646;SDS011;72325;41.910;22.404;2023-12-22T04:28:49;30.52;;;19.70;;
82646;SDS011;72325;41.910;22.404;2023-12-22T04:31:15;32.30;;;20.13;;
82646;SDS011;72325;41.910;22.404;2023-12-22T04:33:41;38.50;;;22.35;;
82646;SDS011;72325;41.910;22.404;2023-12-22T04:39:10;29.90;;;17.25;;
82646;SDS011;72325;41.910;22.404;2023-12-22T04:41:36;31.15;;;18.25;;
82646;SDS011;72325;41.910;22.404;2023-12-22T04:44:02;31.55;;;18.65;;
82646;SDS011;72325;41.910;22.404;2023-12-22T04:46:31;32.97;;;19.02;;
82646;SDS011;72325;41.910;22.404;2023-12-22T04:48:57;31.45;;;18.48;;
82646;SDS011;72325;41.910;22.404;2023-12-22T04:54:27;24.90;;;15.27;;
82646;SDS011;72325;41.910;22.404;2023-12-22T04:56:53;23.10;;;14.40;;
82646;SDS011;72325;41.910;22.404;2023-12-22T04:59:19;23.92;;;14.85;;
82646;SDS011;72325;41.910;22.404;2023-12-22T05:01:45;28.23;;;17.08;;
82646;SDS011;72325;41.910;22.404;2023-12-22T05:04:11;23.45;;;13.68;;
82646;SDS011;72325;41.910;22.404;2023-12-22T05:06:37;22.52;;;12.90;;
82646;SDS011;72325;41.910;22.404;2023-12-22T05:09:04;29.85;;;17.92;;
82646;SDS011;72325;41.910;22.404;2023-12-22T05:11:30;30.33;;;20.67;;
82646;SDS011;72325;41.910;22.404;2023-12-22T05:13:56;28.75;;;16.85;;
82646;SDS011;72325;41.910;22.404;2023-12-22T05:16:22;24.50;;;15.63;;
82646;SDS011;72325;41.910;22.404;2023-12-22T05:18:48;23.10;;;14.35;;
82646;SDS011;72325;41.910;22.404;2023-12-22T05:24:17;25.75;;;16.30;;
82646;SDS011;72325;41.910;22.404;2023-12-22T05:26:44;49.83;;;26.98;;
82646;SDS011;72325;41.910;22.404;2023-12-22T05:29:10;38.28;;;22.95;;
82646;SDS011;72325;41.910;22.404;2023-12-22T05:31:38;50.78;;;31.00;;
82646;SDS011;72325;41.910;22.404;2023-12-22T05:34:04;53.08;;;32.33;;
82646;SDS011;72325;41.910;22.404;2023-12-22T05:39:34;40.50;;;23.23;;
82646;SDS011;72325;41.910;22.404;2023-12-22T05:42:00;42.88;;;23.95;;
82646;SDS011;72325;41.910;22.404;2023-12-22T05:44:26;36.03;;;20.38;;
82646;SDS011;72325;41.910;22.404;2023-12-22T05:46:55;29.00;;;17.02;;
82646;SDS011;72325;41.910;22.404;2023-12-22T05:49:22;29.23;;;17.55;;
82646;SDS011;72325;41.910;22.404;2023-12-22T05:51:48;30.15;;;18.15;;
82646;SDS011;72325;41.910;22.404;2023-12-22T05:54:15;29.67;;;18.10;;
82646;SDS011;72325;41.910;22.404;2023-12-22T05:56:44;31.33;;;18.48;;
82646;SDS011;72325;41.910;22.404;2023-12-22T05:59:10;23.50;;;15.52;;
82646;SDS011;72325;41.910;22.404;2023-12-22T06:01:36;24.67;;;14.55;;
82646;SDS011;72325;41.910;22.404;2023-12-22T06:04:02;23.15;;;15.13;;
82646;SDS011;72325;41.910;22.404;2023-12-22T06:09:31;27.42;;;16.27;;
82646;SDS011;72325;41.910;22.404;2023-12-22T06:11:57;34.38;;;22.50;;
82646;SDS011;72325;41.910;22.404;2023-12-22T06:14:23;40.92;;;26.50;;
82646;SDS011;72325;41.910;22.404;2023-12-22T06:16:49;31.13;;;19.65;;
82646;SDS011;72325;41.910;22.404;2023-12-22T06:19:16;29.60;;;20.33;;
82646;SDS011;72325;41.910;22.404;2023-12-22T06:24:45;53.05;;;28.33;;
82646;SDS011;72325;41.910;22.404;2023-12-22T06:27:11;56.47;;;33.58;;
82646;SDS011;72325;41.910;22.404;2023-12-22T06:29:38;60.42;;;34.78;;
82646;SDS011;72325;41.910;22.404;2023-12-22T06:32:04;43.40;;;26.95;;
82646;SDS011;72325;41.910;22.404;2023-12-22T06:34:31;66.68;;;33.72;;
82646;SDS011;72325;41.910;22.404;2023-12-22T06:36:57;56.75;;;35.08;;
82646;SDS011;72325;41.910;22.404;2023-12-22T06:39:23;40.63;;;24.73;;
82646;SDS011;72325;41.910;22.404;2023-12-22T06:41:50;42.47;;;22.38;;
82646;SDS011;72325;41.910;22.404;2023-12-22T06:44:16;35.03;;;20.95;;
82646;SDS011;72325;41.910;22.404;2023-12-22T06:46:42;31.17;;;17.80;;
82646;SDS011;72325;41.910;22.404;2023-12-22T06:49:08;28.73;;;16.48;;
82646;SDS011;72325;41.910;22.404;2023-12-22T06:54:37;24.65;;;14.80;;
82646;SDS011;72325;41.910;22.404;2023-12-22T06:57:04;26.92;;;17.65;;
82646;SDS011;72325;41.910;22.404;2023-12-22T06:59:30;44.63;;;27.63;;
82646;SDS011;72325;41.910;22.404;2023-12-22T07:01:56;76.55;;;45.58;;
82646;SDS011;72325;41.910;22.404;2023-12-22T07:04:22;77.80;;;49.08;;
82646;SDS011;72325;41.910;22.404;2023-12-22T07:09:51;43.22;;;26.58;;
82646;SDS011;72325;41.910;22.404;2023-12-22T07:12:17;22.23;;;14.32;;
82646;SDS011;72325;41.910;22.404;2023-12-22T07:14:43;35.28;;;22.45;;
82646;SDS011;72325;41.910;22.404;2023-12-22T07:17:10;46.08;;;26.88;;
82646;SDS011;72325;41.910;22.404;2023-12-22T07:19:37;51.35;;;25.35;;
82646;SDS011;72325;41.910;22.404;2023-12-22T07:25:25;116.07;;;70.63;;
82646;SDS011;72325;41.910;22.404;2023-12-22T07:27:51;133.70;;;83.85;;
82646;SDS011;72325;41.910;22.404;2023-12-22T07:30:17;141.95;;;89.03;;
82646;SDS011;72325;41.910;22.404;2023-12-22T07:32:44;123.10;;;82.75;;
82646;SDS011;72325;41.910;22.404;2023-12-22T07:35:12;99.00;;;64.63;;
82646;SDS011;72325;41.910;22.404;2023-12-22T07:37:38;125.57;;;74.82;;
82646;SDS011;72325;41.910;22.404;2023-12-22T07:40:04;103.88;;;54.83;;
82646;SDS011;72325;41.910;22.404;2023-12-22T07:42:31;67.30;;;42.15;;
82646;SDS011;72325;41.910;22.404;2023-12-22T07:44:57;90.68;;;53.47;;
82646;SDS011;72325;41.910;22.404;2023-12-22T07:47:23;90.22;;;53.13;;
82646;SDS011;72325;41.910;22.404;2023-12-22T07:49:49;101.50;;;61.22;;
82646;SDS011;72325;41.910;22.404;2023-12-22T07:52:15;90.43;;;56.00;;
82646;SDS011;72325;41.910;22.404;2023-12-22T07:54:41;89.20;;;54.92;;
82646;SDS011;72325;41.910;22.404;2023-12-22T07:57:07;110.88;;;70.30;;
82646;SDS011;72325;41.910;22.404;2023-12-22T07:59:33;141.15;;;88.18;;
82646;SDS011;72325;41.910;22.404;2023-12-22T08:01:59;152.18;;;100.40;;
82646;SDS011;72325;41.910;22.404;2023-12-22T08:04:25;140.60;;;89.45;;
82646;SDS011;72325;41.910;22.404;2023-12-22T08:09:56;96.90;;;61.15;;
82646;SDS011;72325;41.910;22.404;2023-12-22T08:12:22;108.13;;;65.05;;
82646;SDS011;72325;41.910;22.404;2023-12-22T08:14:51;136.57;;;82.70;;
82646;SDS011;72325;41.910;22.404;2023-12-22T08:17:17;124.57;;;81.93;;
82646;SDS011;72325;41.910;22.404;2023-12-22T08:19:44;147.13;;;86.55;;
82646;SDS011;72325;41.910;22.404;2023-12-22T08:25:13;115.38;;;76.90;;
82646;SDS011;72325;41.910;22.404;2023-12-22T08:27:40;110.18;;;69.72;;
82646;SDS011;72325;41.910;22.404;2023-12-22T08:30:07;109.15;;;70.97;;
82646;SDS011;72325;41.910;22.404;2023-12-22T08:32:33;111.53;;;68.82;;
82646;SDS011;72325;41.910;22.404;2023-12-22T08:34:59;87.10;;;57.83;;
82646;SDS011;72325;41.910;22.404;2023-12-22T08:40:29;69.88;;;44.10;;
82646;SDS011;72325;41.910;22.404;2023-12-22T08:42:55;62.50;;;39.47;;
82646;SDS011;72325;41.910;22.404;2023-12-22T08:47:51;57.42;;;37.40;;
82646;SDS011;72325;41.910;22.404;2023-12-22T08:50:17;62.67;;;41.13;;
82646;SDS011;72325;41.910;22.404;2023-12-22T08:52:43;62.95;;;44.45;;
82646;SDS011;72325;41.910;22.404;2023-12-22T08:55:09;78.25;;;53.80;;
82646;SDS011;72325;41.910;22.404;2023-12-22T08:57:35;84.55;;;55.25;;
82646;SDS011;72325;41.910;22.404;2023-12-22T09:00:02;65.03;;;45.40;;
82646;SDS011;72325;41.910;22.404;2023-12-22T09:02:29;41.42;;;29.45;;
82646;SDS011;72325;41.910;22.404;2023-12-22T09:04:55;37.15;;;25.65;;
82646;SDS011;72325;41.910;22.404;2023-12-22T09:10:24;31.05;;;22.85;;
82646;SDS011;72325;41.910;22.404;2023-12-22T09:12:50;26.10;;;17.98;;
82646;SDS011;72325;41.910;22.404;2023-12-22T09:15:17;30.33;;;21.35;;
82646;SDS011;72325;41.910;22.404;2023-12-22T09:17:43;45.65;;;28.35;;
82646;SDS011;72325;41.910;22.404;2023-12-22T09:20:13;30.42;;;19.02;;
82646;SDS011;72325;41.910;22.404;2023-12-22T09:25:42;45.22;;;28.15;;
82646;SDS011;72325;41.910;22.404;2023-12-22T09:28:08;47.15;;;29.50;;
82646;SDS011;72325;41.910;22.404;2023-12-22T09:30:34;42.40;;;27.95;;
82646;SDS011;72325;41.910;22.404;2023-12-22T09:33:01;33.20;;;20.83;;
82646;SDS011;72325;41.910;22.404;2023-12-22T09:35:27;27.08;;;19.10;;
82646;SDS011;72325;41.910;22.404;2023-12-22T09:37:54;30.95;;;21.20;;
82646;SDS011;72325;41.910;22.404;2023-12-22T09:40:20;39.35;;;26.05;;
82646;SDS011;72325;41.910;22.404;2023-12-22T09:43:08;32.53;;;22.05;;
82646;SDS011;72325;41.910;22.404;2023-12-22T09:45:34;34.20;;;23.15;;
82646;SDS011;72325;41.910;22.404;2023-12-22T09:48:02;30.40;;;19.58;;
82646;SDS011;72325;41.910;22.404;2023-12-22T09:50:29;32.97;;;22.95;;
82646;SDS011;72325;41.910;22.404;2023-12-22T09:56:18;50.33;;;37.22;;
82646;SDS011;72325;41.910;22.404;2023-12-22T09:58:44;40.47;;;28.52;;
82646;SDS011;72325;41.910;22.404;2023-12-22T10:01:11;54.65;;;39.67;;
82646;SDS011;72325;41.910;22.404;2023-12-22T10:03:38;47.67;;;34.92;;
82646;SDS011;72325;41.910;22.404;2023-12-22T10:06:08;48.53;;;34.10;;
82646;SDS011;72325;41.910;22.404;2023-12-22T10:08:34;48.33;;;34.17;;
82646;SDS011;72325;41.910;22.404;2023-12-22T10:11:02;54.97;;;39.13;;
82646;SDS011;72325;41.910;22.404;2023-12-22T10:13:30;38.22;;;26.63;;
82646;SDS011;72325;41.910;22.404;2023-12-22T10:15:56;46.20;;;34.00;;
82646;SDS011;72325;41.910;22.404;2023-12-22T10:18:24;69.50;;;49.28;;
82646;SDS011;72325;41.910;22.404;2023-12-22T10:20:50;67.57;;;45.95;;
82646;SDS011;72325;41.910;22.404;2023-12-22T10:23:16;70.05;;;48.08;;
82646;SDS011;72325;41.910;22.404;2023-12-22T10:25:42;91.60;;;58.70;;
82646;SDS011;72325;41.910;22.404;2023-12-22T10:28:11;66.53;;;45.85;;
82646;SDS011;72325;41.910;22.404;2023-12-22T10:30:39;71.07;;;51.90;;
82646;SDS011;72325;41.910;22.404;2023-12-22T10:33:06;62.92;;;41.47;;
82646;SDS011;72325;41.910;22.404;2023-12-22T10:35:32;45.35;;;31.25;;
82646;SDS011;72325;41.910;22.404;2023-12-22T10:41:05;39.67;;;29.23;;
82646;SDS011;72325;41.910;22.404;2023-12-22T10:43:39;39.05;;;29.85;;
82646;SDS011;72325;41.910;22.404;2023-12-22T10:46:05;55.80;;;38.83;;
82646;SDS011;72325;41.910;22.404;2023-12-22T10:48:33;82.00;;;56.38;;
82646;SDS011;72325;41.910;22.404;2023-12-22T10:51:00;84.45;;;56.10;;
82646;SDS011;72325;41.910;22.404;2023-12-22T10:53:27;84.45;;;58.33;;
82646;SDS011;72325;41.910;22.404;2023-12-22T10:55:54;51.58;;;32.92;;
82646;SDS011;72325;41.910;22.404;2023-12-22T10:58:20;39.47;;;27.58;;
82646;SDS011;72325;41.910;22.404;2023-12-22T11:00:47;36.00;;;25.75;;
82646;SDS011;72325;41.910;22.404;2023-12-22T11:03:17;54.40;;;36.70;;
82646;SDS011;72325;41.910;22.404;2023-12-22T11:05:46;53.90;;;33.00;;
82646;SDS011;72325;41.910;22.404;2023-12-22T11:11:20;49.50;;;33.55;;
82646;SDS011;72325;41.910;22.404;2023-12-22T11:13:49;51.63;;;34.63;;
82646;SDS011;72325;41.910;22.404;2023-12-22T11:16:19;52.63;;;36.42;;
82646;SDS011;72325;41.910;22.404;2023-12-22T11:18:53;54.30;;;37.30;;
82646;SDS011;72325;41.910;22.404;2023-12-22T11:21:24;50.20;;;35.92;;
82646;SDS011;72325;41.910;22.404;2023-12-22T11:23:52;44.28;;;35.08;;
82646;SDS011;72325;41.910;22.404;2023-12-22T11:26:21;49.00;;;33.65;;
82646;SDS011;72325;41.910;22.404;2023-12-22T11:28:50;76.15;;;50.20;;
82646;SDS011;72325;41.910;22.404;2023-12-22T11:31:17;93.18;;;63.45;;
82646;SDS011;72325;41.910;22.404;2023-12-22T11:33:43;75.50;;;53.65;;
82646;SDS011;72325;41.910;22.404;2023-12-22T11:36:10;68.28;;;47.88;;
82646;SDS011;72325;41.910;22.404;2023-12-22T11:41:41;87.05;;;57.25;;
82646;SDS011;72325;41.910;22.404;2023-12-22T11:44:09;89.82;;;58.60;;
82646;SDS011;72325;41.910;22.404;2023-12-22T11:46:37;80.00;;;59.28;;
82646;SDS011;72325;41.910;22.404;2023-12-22T11:49:08;86.05;;;60.22;;
82646;SDS011;72325;41.910;22.404;2023-12-22T11:51:39;87.22;;;61.17;;
82646;SDS011;72325;41.910;22.404;2023-12-22T11:54:43;84.75;;;60.53;;
82646;SDS011;72325;41.910;22.404;2023-12-22T11:56:51;66.38;;;47.63;;
82646;SDS011;72325;41.910;22.404;2023-12-22T11:59:17;56.22;;;39.00;;
82646;SDS011;72325;41.910;22.404;2023-12-22T12:01:43;61.28;;;43.35;;
82646;SDS011;72325;41.910;22.404;2023-12-22T12:04:09;72.18;;;47.40;;
82646;SDS011;72325;41.910;22.404;2023-12-22T12:06:35;52.05;;;34.65;;
82646;SDS011;72325;41.910;22.404;2023-12-22T12:09:06;52.00;;;34.78;;
82646;SDS011;72325;41.910;22.404;2023-12-22T12:14:26;68.20;;;46.22;;
82646;SDS011;72325;41.910;22.404;2023-12-22T12:17:00;73.15;;;48.17;;
82646;SDS011;72325;41.910;22.404;2023-12-22T12:19:29;80.25;;;54.58;;
82646;SDS011;72325;41.910;22.404;2023-12-22T12:21:55;81.43;;;57.28;;
82646;SDS011;72325;41.910;22.404;2023-12-22T12:24:22;118.13;;;72.78;;
82646;SDS011;72325;41.910;22.404;2023-12-22T12:26:51;108.82;;;68.63;;
82646;SDS011;72325;41.910;22.404;2023-12-22T12:29:17;78.88;;;56.00;;
82646;SDS011;72325;41.910;22.404;2023-12-22T12:31:43;132.30;;;76.30;;
82646;SDS011;72325;41.910;22.404;2023-12-22T12:34:10;73.38;;;44.55;;
82646;SDS011;72325;41.910;22.404;2023-12-22T12:36:37;67.82;;;41.97;;
82646;SDS011;72325;41.910;22.404;2023-12-22T12:42:08;58.40;;;39.40;;
82646;SDS011;72325;41.910;22.404;2023-12-22T12:44:34;46.17;;;32.60;;
82646;SDS011;72325;41.910;22.404;2023-12-22T12:47:10;37.72;;;26.65;;
82646;SDS011;72325;41.910;22.404;2023-12-22T12:49:37;40.15;;;27.70;;
82646;SDS011;72325;41.910;22.404;2023-12-22T12:52:03;41.05;;;26.73;;
82646;SDS011;72325;41.910;22.404;2023-12-22T12:54:29;40.25;;;29.20;;
82646;SDS011;72325;41.910;22.404;2023-12-22T12:56:57;50.35;;;36.35;;
82646;SDS011;72325;41.910;22.404;2023-12-22T12:59:23;64.10;;;40.55;;
82646;SDS011;72325;41.910;22.404;2023-12-22T13:01:50;56.03;;;37.22;;
82646;SDS011;72325;41.910;22.404;2023-12-22T13:04:16;46.40;;;31.52;;
82646;SDS011;72325;41.910;22.404;2023-12-22T13:06:45;49.38;;;30.98;;
82646;SDS011;72325;41.910;22.404;2023-12-22T13:12:15;29.33;;;18.67;;
82646;SDS011;72325;41.910;22.404;2023-12-22T13:14:41;14.30;;;8.68;;
82646;SDS011;72325;41.910;22.404;2023-12-22T13:17:08;14.63;;;8.27;;
82646;SDS011;72325;41.910;22.404;2023-12-22T13:19:35;28.13;;;18.20;;
82646;SDS011;72325;41.910;22.404;2023-12-22T13:22:01;16.85;;;12.15;;
82646;SDS011;72325;41.910;22.404;2023-12-22T13:24:27;23.88;;;15.02;;
82646;SDS011;72325;41.910;22.404;2023-12-22T13:27:00;15.95;;;10.57;;
82646;SDS011;72325;41.910;22.404;2023-12-22T13:29:27;26.00;;;18.40;;
82646;SDS011;72325;41.910;22.404;2023-12-22T13:31:53;25.40;;;17.60;;
82646;SDS011;72325;41.910;22.404;2023-12-22T13:34:20;21.15;;;13.82;;
82646;SDS011;72325;41.910;22.404;2023-12-22T13:36:46;31.98;;;19.38;;
82646;SDS011;72325;41.910;22.404;2023-12-22T13:42:16;28.05;;;18.35;;
82646;SDS011;72325;41.910;22.404;2023-12-22T13:44:45;21.85;;;14.50;;
82646;SDS011;72325;41.910;22.404;2023-12-22T13:47:17;31.55;;;22.35;;
82646;SDS011;72325;41.910;22.404;2023-12-22T13:49:43;40.95;;;29.73;;
82646;SDS011;72325;41.910;22.404;2023-12-22T13:58:16;29.67;;;22.00;;
82646;SDS011;72325;41.910;22.404;2023-12-22T14:00:42;22.70;;;16.33;;
82646;SDS011;72325;41.910;22.404;2023-12-22T14:03:10;20.85;;;14.57;;
82646;SDS011;72325;41.910;22.404;2023-12-22T14:05:36;21.08;;;14.98;;
82646;SDS011;72325;41.910;22.404;2023-12-22T14:08:06;22.38;;;16.27;;
82646;SDS011;72325;41.910;22.404;2023-12-22T14:10:32;26.63;;;18.55;;
82646;SDS011;72325;41.910;22.404;2023-12-22T14:12:58;45.28;;;29.92;;
82646;SDS011;72325;41.910;22.404;2023-12-22T14:15:24;36.15;;;25.63;;
82646;SDS011;72325;41.910;22.404;2023-12-22T14:17:54;39.70;;;28.40;;
82646;SDS011;72325;41.910;22.404;2023-12-22T14:20:20;43.67;;;31.63;;
82646;SDS011;72325;41.910;22.404;2023-12-22T14:22:46;38.72;;;28.70;;
82646;SDS011;72325;41.910;22.404;2023-12-22T14:25:12;42.75;;;27.50;;
82646;SDS011;72325;41.910;22.404;2023-12-22T14:27:39;53.58;;;36.58;;
82646;SDS011;72325;41.910;22.404;2023-12-22T14:30:05;67.30;;;46.92;;
82646;SDS011;72325;41.910;22.404;2023-12-22T14:32:31;69.70;;;51.33;;
82646;SDS011;72325;41.910;22.404;2023-12-22T14:34:57;44.63;;;31.55;;
82646;SDS011;72325;41.910;22.404;2023-12-22T14:37:23;56.25;;;33.30;;
82646;SDS011;72325;41.910;22.404;2023-12-22T14:39:49;43.28;;;27.52;;
82646;SDS011;72325;41.910;22.404;2023-12-22T14:42:15;30.75;;;19.20;;
82646;SDS011;72325;41.910;22.404;2023-12-22T14:44:41;20.92;;;14.10;;
82646;SDS011;72325;41.910;22.404;2023-12-22T14:47:07;26.30;;;16.77;;
82646;SDS011;72325;41.910;22.404;2023-12-22T14:49:34;52.85;;;30.77;;
82646;SDS011;72325;41.910;22.404;2023-12-22T14:52:00;40.03;;;25.75;;
82646;SDS011;72325;41.910;22.404;2023-12-22T14:57:29;42.30;;;25.60;;
82646;SDS011;72325;41.910;22.404;2023-12-22T14:59:55;23.00;;;14.95;;
82646;SDS011;72325;41.910;22.404;2023-12-22T15:02:22;12.15;;;8.18;;
82646;SDS011;72325;41.910;22.404;2023-12-22T15:04:48;14.18;;;9.85;;
82646;SDS011;72325;41.910;22.404;2023-12-22T15:07:15;12.48;;;9.27;;
82646;SDS011;72325;41.910;22.404;2023-12-22T15:12:45;7.18;;;5.25;;
82646;SDS011;72325;41.910;22.404;2023-12-22T15:15:11;14.43;;;9.55;;
82646;SDS011;72325;41.910;22.404;2023-12-22T15:17:37;17.58;;;10.57;;
82646;SDS011;72325;41.910;22.404;2023-12-22T15:20:03;19.80;;;11.05;;
82646;SDS011;72325;41.910;22.404;2023-12-22T15:22:30;19.30;;;12.93;;
82646;SDS011;72325;41.910;22.404;2023-12-22T15:28:00;14.50;;;10.40;;
82646;SDS011;72325;41.910;22.404;2023-12-22T15:30:27;19.63;;;11.15;;
82646;SDS011;72325;41.910;22.404;2023-12-22T15:32:53;23.33;;;13.88;;
82646;SDS011;72325;41.910;22.404;2023-12-22T15:35:19;12.70;;;8.00;;
82646;SDS011;72325;41.910;22.404;2023-12-22T15:37:46;11.10;;;6.72;;
82646;SDS011;72325;41.910;22.404;2023-12-22T15:40:12;18.88;;;13.52;;
82646;SDS011;72325;41.910;22.404;2023-12-22T15:42:38;16.95;;;12.60;;
82646;SDS011;72325;41.910;22.404;2023-12-22T15:45:04;17.58;;;12.27;;
82646;SDS011;72325;41.910;22.404;2023-12-22T15:47:31;18.08;;;12.02;;
82646;SDS011;72325;41.910;22.404;2023-12-22T15:49:57;19.10;;;12.32;;
82646;SDS011;72325;41.910;22.404;2023-12-22T15:52:23;16.38;;;10.95;;
82646;SDS011;72325;41.910;22.404;2023-12-22T15:57:53;15.77;;;10.32;;
82646;SDS011;72325;41.910;22.404;2023-12-22T16:00:19;13.07;;;7.93;;
82646;SDS011;72325;41.910;22.404;2023-12-22T16:02:45;12.90;;;7.65;;
82646;SDS011;72325;41.910;22.404;2023-12-22T16:05:11;11.45;;;6.90;;
82646;SDS011;72325;41.910;22.404;2023-12-22T16:07:37;16.17;;;9.93;;